EZY81QC LGSR-EGKK
Flight info
| Callsign | EZY81QC |
|---|---|
| Flight time | N/A |
| Altitude | 36000 |
| Route | MADEX UL53 KOR UL613 XANIS DCT VJOSA DCT PAPIZ DCT GONOT/N0439F380 DCT CRAYE DCT GISAM DCT RILIM DCT LABIN DCT VIC DCT RESIA DCT ELMUR DCT RIPUS DCT DITON DCT HOC DCT LUL DCT RLP DCT ROTSI DCT KOTUN DCT NINAL DCT KESAX DCT KUNAV |
| Aircraft | A320/M-SDE3FGHIRWY/LB1 |
Departure
| Time | N/A |
|---|---|
| Airport | Santorini International Airport (LGSR) |
Arrival
| Time | 2026-05-04 14:01 |
|---|---|
| Airport | London Gatwick Airport (EGKK) |
| Time | Latitude | Longitude | Altitude | Speed | Heading |
|---|---|---|---|---|---|
| 2026-05-04 12:44 | 46.98378 | 9.20194 | 36011 ft | 423 kts | 308° |
| 2026-05-04 12:44 | 47.02244 | 9.13665 | 36000 ft | 423 kts | 308° |
| 2026-05-04 12:45 | 47.06098 | 9.07124 | 35997 ft | 423 kts | 307° |
| 2026-05-04 12:45 | 47.09235 | 9.01760 | 35996 ft | 423 kts | 307° |
| 2026-05-04 12:46 | 47.13564 | 8.94365 | 35986 ft | 422 kts | 307° |
| 2026-05-04 12:46 | 47.16621 | 8.87119 | 35987 ft | 414 kts | 289° |
| 2026-05-04 12:47 | 47.18300 | 8.80556 | 35987 ft | 413 kts | 287° |
| 2026-05-04 12:47 | 47.20311 | 8.72652 | 35991 ft | 413 kts | 287° |
| 2026-05-04 12:48 | 47.22328 | 8.64726 | 35997 ft | 413 kts | 287° |
| 2026-05-04 12:48 | 47.24329 | 8.56795 | 36000 ft | 413 kts | 287° |
| 2026-05-04 12:49 | 47.26309 | 8.48910 | 36002 ft | 413 kts | 287° |
| 2026-05-04 12:49 | 47.28279 | 8.41069 | 36003 ft | 413 kts | 287° |
| 2026-05-04 12:50 | 47.30274 | 8.33126 | 35989 ft | 413 kts | 287° |
| 2026-05-04 12:50 | 47.32262 | 8.25189 | 35994 ft | 412 kts | 286° |
| 2026-05-04 12:51 | 47.34230 | 8.17290 | 35999 ft | 413 kts | 286° |
| 2026-05-04 12:51 | 47.36201 | 8.09343 | 35996 ft | 412 kts | 286° |
| 2026-05-04 12:52 | 47.38150 | 8.01390 | 36005 ft | 412 kts | 285° |
| 2026-05-04 12:52 | 47.40100 | 7.93449 | 36005 ft | 411 kts | 286° |
| 2026-05-04 12:53 | 47.42052 | 7.85516 | 36008 ft | 411 kts | 286° |
| 2026-05-04 12:53 | 47.43993 | 7.77566 | 35995 ft | 411 kts | 285° |
| 2026-05-04 12:54 | 47.44960 | 7.73584 | 35996 ft | 411 kts | 285° |
| 2026-05-04 12:54 | 47.46521 | 7.67101 | 35999 ft | 410 kts | 283° |
| 2026-05-04 12:55 | 47.47940 | 7.58969 | 35997 ft | 408 kts | 279° |
| 2026-05-04 12:55 | 47.49293 | 7.50816 | 35995 ft | 408 kts | 279° |
| 2026-05-04 12:56 | 47.50653 | 7.42658 | 35993 ft | 408 kts | 279° |
| 2026-05-04 12:56 | 47.52007 | 7.34497 | 35997 ft | 409 kts | 279° |
| 2026-05-04 12:57 | 47.53347 | 7.26380 | 35997 ft | 409 kts | 279° |
| 2026-05-04 12:57 | 47.54687 | 7.18201 | 35996 ft | 409 kts | 279° |
| 2026-05-04 12:58 | 47.56025 | 7.10010 | 36014 ft | 409 kts | 279° |
| 2026-05-04 12:58 | 47.57358 | 7.01811 | 36019 ft | 410 kts | 279° |
| 2026-05-04 12:59 | 47.58689 | 6.93592 | 36023 ft | 410 kts | 279° |
| 2026-05-04 12:59 | 47.60017 | 6.85368 | 36027 ft | 410 kts | 279° |
| 2026-05-04 13:00 | 47.61339 | 6.77139 | 36025 ft | 410 kts | 278° |
| 2026-05-04 13:00 | 47.62649 | 6.68911 | 36023 ft | 410 kts | 278° |
| 2026-05-04 13:01 | 47.63942 | 6.60729 | 36021 ft | 411 kts | 278° |
| 2026-05-04 13:01 | 47.65243 | 6.52480 | 36028 ft | 411 kts | 278° |
| 2026-05-04 13:02 | 47.66539 | 6.44228 | 36028 ft | 411 kts | 278° |
| 2026-05-04 13:02 | 47.67831 | 6.35955 | 36030 ft | 411 kts | 278° |
| 2026-05-04 13:03 | 47.69149 | 6.27678 | 36031 ft | 413 kts | 280° |
| 2026-05-04 13:03 | 47.70820 | 6.19507 | 36024 ft | 415 kts | 283° |
| 2026-05-04 13:04 | 47.72658 | 6.11424 | 36025 ft | 416 kts | 283° |
| 2026-05-04 13:04 | 47.74454 | 6.03261 | 36033 ft | 415 kts | 282° |
| 2026-05-04 13:05 | 47.76180 | 5.95056 | 36031 ft | 415 kts | 282° |
| 2026-05-04 13:05 | 47.77880 | 5.86847 | 36026 ft | 416 kts | 282° |
| 2026-05-04 13:06 | 47.79587 | 5.78621 | 36022 ft | 416 kts | 282° |
| 2026-05-04 13:06 | 47.81294 | 5.70439 | 36017 ft | 416 kts | 282° |
| 2026-05-04 13:07 | 47.83008 | 5.62209 | 36012 ft | 417 kts | 282° |
| 2026-05-04 13:07 | 47.84710 | 5.53957 | 36005 ft | 417 kts | 282° |
| 2026-05-04 13:08 | 47.86395 | 5.45695 | 35999 ft | 417 kts | 282° |
| 2026-05-04 13:08 | 47.88088 | 5.37417 | 36003 ft | 418 kts | 282° |
| 2026-05-04 13:09 | 47.89807 | 5.29137 | 35993 ft | 420 kts | 285° |
| 2026-05-04 13:09 | 47.92708 | 5.21528 | 35991 ft | 433 kts | 305° |
| 2026-05-04 13:10 | 47.96773 | 5.14831 | 35987 ft | 435 kts | 307° |
| 2026-05-04 13:10 | 48.00844 | 5.08128 | 35984 ft | 436 kts | 307° |
| 2026-05-04 13:11 | 48.04903 | 5.01398 | 35982 ft | 436 kts | 307° |
| 2026-05-04 13:11 | 48.08963 | 4.94652 | 35981 ft | 437 kts | 307° |
| 2026-05-04 13:12 | 48.13035 | 4.87894 | 35981 ft | 437 kts | 307° |
| 2026-05-04 13:12 | 48.17115 | 4.81118 | 35983 ft | 438 kts | 307° |
| 2026-05-04 13:13 | 48.21178 | 4.74324 | 35991 ft | 438 kts | 307° |
| 2026-05-04 13:13 | 48.25246 | 4.67503 | 35983 ft | 438 kts | 307° |
| 2026-05-04 13:14 | 48.29273 | 4.60739 | 35983 ft | 438 kts | 306° |
| 2026-05-04 13:14 | 48.33327 | 4.53906 | 35977 ft | 438 kts | 306° |
| 2026-05-04 13:15 | 48.37377 | 4.47067 | 35978 ft | 438 kts | 306° |
| 2026-05-04 13:15 | 48.41433 | 4.40210 | 35984 ft | 439 kts | 307° |
| 2026-05-04 13:16 | 48.45487 | 4.33341 | 35982 ft | 438 kts | 306° |
| 2026-05-04 13:16 | 48.49524 | 4.26465 | 35981 ft | 438 kts | 306° |
| 2026-05-04 13:17 | 48.53562 | 4.19573 | 35983 ft | 438 kts | 306° |
| 2026-05-04 13:17 | 48.57595 | 4.12676 | 35983 ft | 438 kts | 306° |
| 2026-05-04 13:18 | 48.61600 | 4.05798 | 35980 ft | 438 kts | 306° |
| 2026-05-04 13:18 | 48.65632 | 3.98867 | 35981 ft | 439 kts | 306° |
| 2026-05-04 13:19 | 48.69666 | 3.91926 | 35980 ft | 439 kts | 306° |
| 2026-05-04 13:19 | 48.73722 | 3.85005 | 35982 ft | 440 kts | 308° |
| 2026-05-04 13:20 | 48.78062 | 3.78432 | 35980 ft | 442 kts | 311° |
| 2026-05-04 13:20 | 48.81521 | 3.73482 | 35977 ft | 442 kts | 312° |
| 2026-05-04 13:21 | 48.85970 | 3.67039 | 35979 ft | 442 kts | 311° |
| 2026-05-04 13:21 | 48.90356 | 3.60496 | 35980 ft | 442 kts | 310° |
| 2026-05-04 13:22 | 48.94715 | 3.53912 | 35980 ft | 442 kts | 310° |
| 2026-05-04 13:22 | 48.99073 | 3.47330 | 35977 ft | 442 kts | 310° |
| 2026-05-04 13:23 | 49.03451 | 3.40727 | 35983 ft | 443 kts | 310° |
| 2026-05-04 13:23 | 49.07822 | 3.34133 | 35986 ft | 442 kts | 310° |
| 2026-05-04 13:24 | 49.12180 | 3.27532 | 35984 ft | 442 kts | 310° |
| 2026-05-04 13:24 | 49.16501 | 3.20942 | 35980 ft | 442 kts | 310° |
| 2026-05-04 13:25 | 49.23049 | 3.10955 | 35969 ft | 442 kts | 310° |
| 2026-05-04 13:25 | 49.27405 | 3.04308 | 35978 ft | 442 kts | 310° |
| 2026-05-04 13:26 | 49.31718 | 2.97694 | 35982 ft | 441 kts | 310° |
| 2026-05-04 13:26 | 49.36050 | 2.91028 | 35981 ft | 441 kts | 310° |
| 2026-05-04 13:27 | 49.40389 | 2.84348 | 35982 ft | 441 kts | 310° |
| 2026-05-04 13:27 | 49.44715 | 2.77665 | 35985 ft | 441 kts | 310° |
| 2026-05-04 13:28 | 49.49037 | 2.70961 | 35982 ft | 441 kts | 310° |
| 2026-05-04 13:28 | 49.53357 | 2.64236 | 35980 ft | 441 kts | 310° |
| 2026-05-04 13:29 | 49.57674 | 2.57510 | 35981 ft | 441 kts | 310° |
| 2026-05-04 13:29 | 49.61914 | 2.50764 | 35983 ft | 440 kts | 308° |
| 2026-05-04 13:30 | 49.65928 | 2.43583 | 35980 ft | 439 kts | 305° |
| 2026-05-04 13:30 | 49.69805 | 2.36295 | 35984 ft | 439 kts | 306° |
| 2026-05-04 13:31 | 49.73684 | 2.29107 | 35983 ft | 439 kts | 306° |
| 2026-05-04 13:31 | 49.77628 | 2.21897 | 35983 ft | 439 kts | 306° |
| 2026-05-04 13:32 | 49.81611 | 2.14621 | 35981 ft | 439 kts | 306° |
| 2026-05-04 13:32 | 49.85566 | 2.07373 | 35744 ft | 443 kts | 306° |
| 2026-05-04 13:33 | 49.87542 | 2.03732 | 35494 ft | 442 kts | 306° |
| 2026-05-04 13:33 | 49.89490 | 2.00134 | 35267 ft | 440 kts | 306° |
| 2026-05-04 13:33 | 49.91453 | 1.96504 | 35022 ft | 439 kts | 306° |
| 2026-05-04 13:33 | 49.93410 | 1.92884 | 34711 ft | 435 kts | 306° |
| 2026-05-04 13:34 | 49.95354 | 1.89283 | 34177 ft | 434 kts | 305° |
| 2026-05-04 13:34 | 49.97284 | 1.85696 | 33621 ft | 433 kts | 305° |
| 2026-05-04 13:34 | 49.99210 | 1.82112 | 33079 ft | 429 kts | 305° |
| 2026-05-04 13:34 | 50.00474 | 1.79758 | 32742 ft | 427 kts | 306° |
| 2026-05-04 13:35 | 50.02369 | 1.76231 | 32225 ft | 424 kts | 306° |
| 2026-05-04 13:35 | 50.06129 | 1.69220 | 31218 ft | 418 kts | 306° |
| 2026-05-04 13:35 | 50.08147 | 1.65969 | 30727 ft | 418 kts | 315° |
| 2026-05-04 13:36 | 50.10330 | 1.62992 | 30248 ft | 415 kts | 316° |
| 2026-05-04 13:36 | 50.12497 | 1.60051 | 29722 ft | 413 kts | 316° |
| 2026-05-04 13:36 | 50.14660 | 1.57124 | 29258 ft | 408 kts | 316° |
| 2026-05-04 13:36 | 50.16787 | 1.54250 | 28801 ft | 403 kts | 316° |
| 2026-05-04 13:37 | 50.18888 | 1.51407 | 28360 ft | 398 kts | 316° |
| 2026-05-04 13:37 | 50.20974 | 1.48571 | 27915 ft | 393 kts | 316° |
| 2026-05-04 13:37 | 50.23022 | 1.45779 | 27454 ft | 389 kts | 316° |
| 2026-05-04 13:37 | 50.25023 | 1.43042 | 27015 ft | 386 kts | 316° |
| 2026-05-04 13:38 | 50.27066 | 1.40247 | 26551 ft | 383 kts | 316° |
| 2026-05-04 13:38 | 50.29039 | 1.37546 | 26091 ft | 381 kts | 316° |
| 2026-05-04 13:38 | 50.31027 | 1.34818 | 25612 ft | 379 kts | 316° |
| 2026-05-04 13:38 | 50.32999 | 1.32106 | 25130 ft | 377 kts | 316° |
| 2026-05-04 13:39 | 50.34974 | 1.29396 | 24627 ft | 377 kts | 316° |
| 2026-05-04 13:39 | 50.36942 | 1.26692 | 24121 ft | 376 kts | 316° |
| 2026-05-04 13:39 | 50.38912 | 1.23980 | 23611 ft | 376 kts | 316° |
| 2026-05-04 13:39 | 50.40879 | 1.21269 | 23043 ft | 376 kts | 316° |
| 2026-05-04 13:40 | 50.42833 | 1.18570 | 22531 ft | 373 kts | 316° |
| 2026-05-04 13:40 | 50.44775 | 1.15885 | 22049 ft | 371 kts | 316° |
| 2026-05-04 13:40 | 50.46705 | 1.13213 | 21566 ft | 369 kts | 316° |
| 2026-05-04 13:40 | 50.48626 | 1.10544 | 21082 ft | 367 kts | 317° |
| 2026-05-04 13:41 | 50.50538 | 1.07886 | 20595 ft | 366 kts | 317° |
| 2026-05-04 13:41 | 50.52353 | 1.05120 | 20129 ft | 363 kts | 311° |
| 2026-05-04 13:41 | 50.54075 | 1.02216 | 19659 ft | 362 kts | 311° |
| 2026-05-04 13:42 | 50.57499 | 0.96450 | 18743 ft | 359 kts | 312° |
| 2026-05-04 13:42 | 50.59196 | 0.93585 | 18283 ft | 358 kts | 311° |
| 2026-05-04 13:42 | 50.60630 | 0.90398 | 17630 ft | 358 kts | 296° |
| 2026-05-04 13:42 | 50.61730 | 0.86990 | 17451 ft | 345 kts | 295° |
| 2026-05-04 13:43 | 50.62779 | 0.83712 | 17139 ft | 328 kts | 295° |
| 2026-05-04 13:43 | 50.63793 | 0.80536 | 16572 ft | 321 kts | 295° |
| 2026-05-04 13:43 | 50.64790 | 0.77408 | 15933 ft | 318 kts | 295° |
| 2026-05-04 13:43 | 50.65772 | 0.74326 | 15314 ft | 315 kts | 295° |
| 2026-05-04 13:44 | 50.66752 | 0.71246 | 14700 ft | 312 kts | 295° |
| 2026-05-04 13:44 | 50.67718 | 0.68208 | 14124 ft | 309 kts | 295° |
| 2026-05-04 13:44 | 50.68676 | 0.65195 | 13494 ft | 306 kts | 295° |
| 2026-05-04 13:44 | 50.69635 | 0.62174 | 12613 ft | 310 kts | 296° |
| 2026-05-04 13:45 | 50.70607 | 0.59108 | 12130 ft | 312 kts | 295° |
| 2026-05-04 13:45 | 50.71573 | 0.56060 | 11770 ft | 309 kts | 296° |
| 2026-05-04 13:45 | 50.72532 | 0.53036 | 11406 ft | 307 kts | 295° |
| 2026-05-04 13:45 | 50.73483 | 0.50030 | 11042 ft | 305 kts | 295° |
| 2026-05-04 13:46 | 50.74428 | 0.47047 | 10686 ft | 303 kts | 296° |
| 2026-05-04 13:46 | 50.75367 | 0.44075 | 10313 ft | 301 kts | 295° |
| 2026-05-04 13:46 | 50.76298 | 0.41128 | 10038 ft | 299 kts | 296° |
| 2026-05-04 13:46 | 50.77229 | 0.38182 | 10011 ft | 300 kts | 296° |
| 2026-05-04 13:47 | 50.78150 | 0.35262 | 10011 ft | 296 kts | 296° |
| 2026-05-04 13:47 | 50.79069 | 0.32349 | 10014 ft | 295 kts | 295° |
| 2026-05-04 13:47 | 50.79912 | 0.29671 | 10015 ft | 294 kts | 295° |
| 2026-05-04 13:48 | 50.80225 | 0.28666 | 10014 ft | 294 kts | 295° |
| 2026-05-04 13:48 | 50.81135 | 0.25768 | 9999 ft | 294 kts | 295° |
| 2026-05-04 13:48 | 50.82037 | 0.22892 | 9682 ft | 290 kts | 295° |
| 2026-05-04 13:48 | 50.82919 | 0.20071 | 9204 ft | 284 kts | 295° |
| 2026-05-04 13:49 | 50.83788 | 0.17286 | 9005 ft | 283 kts | 295° |
| 2026-05-04 13:49 | 50.84647 | 0.14521 | 9013 ft | 284 kts | 295° |
| 2026-05-04 13:49 | 50.85516 | 0.11724 | 8887 ft | 281 kts | 295° |
| 2026-05-04 13:49 | 50.86374 | 0.08952 | 8304 ft | 277 kts | 295° |
| 2026-05-04 13:50 | 50.87190 | 0.06308 | 8051 ft | 261 kts | 295° |
| 2026-05-04 13:50 | 50.87975 | 0.03758 | 7530 ft | 255 kts | 295° |
| 2026-05-04 13:50 | 50.88746 | 0.01240 | 6995 ft | 253 kts | 295° |
| 2026-05-04 13:50 | 50.89003 | 0.00395 | 6809 ft | 252 kts | 295° |
| 2026-05-04 13:51 | 50.89672 | -0.01798 | 6320 ft | 249 kts | 295° |
| 2026-05-04 13:51 | 50.90411 | -0.04256 | 6032 ft | 246 kts | 295° |
| 2026-05-04 13:51 | 50.91146 | -0.06715 | 5939 ft | 249 kts | 295° |
| 2026-05-04 13:51 | 50.91882 | -0.09186 | 5603 ft | 247 kts | 295° |
| 2026-05-04 13:52 | 50.93311 | -0.14035 | 5109 ft | 236 kts | 295° |
| 2026-05-04 13:52 | 50.94001 | -0.16394 | 5000 ft | 236 kts | 295° |
| 2026-05-04 13:52 | 50.94689 | -0.18749 | 4953 ft | 234 kts | 295° |
| 2026-05-04 13:53 | 50.95373 | -0.21092 | 4608 ft | 234 kts | 295° |
| 2026-05-04 13:53 | 50.96052 | -0.23428 | 4262 ft | 233 kts | 295° |
| 2026-05-04 13:53 | 50.96730 | -0.25772 | 3925 ft | 232 kts | 295° |
| 2026-05-04 13:54 | 50.98068 | -0.30413 | 3271 ft | 231 kts | 295° |
| 2026-05-04 13:54 | 50.98734 | -0.32723 | 3040 ft | 229 kts | 295° |
| 2026-05-04 13:54 | 51.00113 | -0.37488 | 3003 ft | 245 kts | 295° |
| 2026-05-04 13:55 | 51.00688 | -0.39474 | 3001 ft | 246 kts | 295° |
| 2026-05-04 13:55 | 51.02119 | -0.44417 | 2999 ft | 246 kts | 295° |
| 2026-05-04 13:55 | 51.02975 | -0.46757 | 2998 ft | 245 kts | 314° |
| 2026-05-04 13:56 | 51.04392 | -0.48186 | 2995 ft | 244 kts | 341° |
| 2026-05-04 13:56 | 51.06023 | -0.48959 | 2998 ft | 244 kts | 346° |
| 2026-05-04 13:56 | 51.08423 | -0.48604 | 2985 ft | 242 kts | 31° |
| 2026-05-04 13:57 | 51.09691 | -0.46950 | 3001 ft | 229 kts | 45° |
| 2026-05-04 13:57 | 51.10770 | -0.45197 | 2999 ft | 215 kts | 51° |
| 2026-05-04 13:58 | 51.12055 | -0.38863 | 2555 ft | 202 kts | 77° |
| 2026-05-04 13:58 | 51.12661 | -0.34521 | 2025 ft | 195 kts | 77° |
| 2026-05-04 13:58 | 51.12934 | -0.32564 | 1771 ft | 182 kts | 77° |
| 2026-05-04 13:59 | 51.13198 | -0.30672 | 1535 ft | 170 kts | 77° |
| 2026-05-04 13:59 | 51.13444 | -0.28903 | 1324 ft | 155 kts | 77° |
| 2026-05-04 13:59 | 51.13865 | -0.25883 | 917 ft | 135 kts | 78° |
| 2026-05-04 14:00 | 51.14062 | -0.24439 | 735 ft | 132 kts | 78° |
| 2026-05-04 14:00 | 51.14457 | -0.21624 | 372 ft | 129 kts | 77° |
| 2026-05-04 14:00 | 51.14643 | -0.20236 | 228 ft | 127 kts | 77° |
| 2026-05-04 14:01 | 51.14814 | -0.19010 | 213 ft | 92 kts | 77° |
| 2026-05-04 14:01 | 51.14918 | -0.18282 | 211 ft | 43 kts | 77° |
| 2026-05-04 14:01 | 51.15060 | -0.17792 | 207 ft | 8 kts | 50° |
| 2026-05-04 14:02 | 51.15134 | -0.17764 | 206 ft | 13 kts | 355° |
| 2026-05-04 14:02 | 51.15188 | -0.17675 | 216 ft | 12 kts | 82° |
| 2026-05-04 14:02 | 51.15206 | -0.17537 | 213 ft | 11 kts | 77° |
| 2026-05-04 14:02 | 51.15223 | -0.17408 | 209 ft | 13 kts | 78° |
| 2026-05-04 14:03 | 51.15295 | -0.17354 | 205 ft | 14 kts | 346° |
| 2026-05-04 14:03 | 51.15397 | -0.17389 | 215 ft | 16 kts | 348° |
| 2026-05-04 14:03 | 51.15511 | -0.17427 | 205 ft | 18 kts | 346° |
| 2026-05-04 14:03 | 51.15643 | -0.17475 | 210 ft | 21 kts | 347° |
| 2026-05-04 14:04 | 51.15774 | -0.17426 | 205 ft | 9 kts | 81° |
| 2026-05-04 14:04 | 51.15789 | -0.17317 | 205 ft | 12 kts | 77° |
| 2026-05-04 14:04 | 51.15808 | -0.17176 | 214 ft | 14 kts | 78° |
| 2026-05-04 14:05 | 51.15843 | -0.17157 | 211 ft | 5 kts | 329° |
| 2026-05-04 14:05 | 51.15871 | -0.17183 | 205 ft | 4 kts | 334° |
| 2026-05-04 14:05 | 51.15884 | -0.17192 | 208 ft | 0 kts | 335° |
| 2026-05-04 14:06 | 51.15885 | -0.17192 | 208 ft | 0 kts | 335° |